Normal, IL

2:49 PM CDT on May 25, 2015 (GMT -0500)
Park West | | Change Station
CLOSE
Current Station
Personal Weather Station
Location: Normal, IL
Elevation: 804 ft
Nearby Weather Stations

Elev 804 ft 40.53 °N, 89.02 °W | Updated 4 minutes ago

Partly Cloudy
Partly Cloudy
79.0 °F
Feels Like 80 °F
N
10.9
Wind Variable Wind from SSW

Today
High -- | Low -- °F
--% Chance of Precip.
Yesterday
High -- | Low -- °F
Precip. -- in
5:31 AM 8:14 PM
Waxing Crescent, 51% visible
Pressure 29.96 in
Visibility 10.0 miles
Clouds Scattered Clouds 3000 ft
Heat Index 80 °F
Dew Point 62 °F
Humidity 57%
Rainfall 0.14 in
Snow Depth Not available.
UV 9 out of 12
Pollen 8.40 out of 12
Air Quality Not available.
Flu Activity Sporadic
METAR KBMI 251856Z 20014KT 10SM SCT030 24/17 A2999 RMK AO2 T02440172 SLP144

More Conditions Fewer Conditions

Pressure 29.96 in
Visibility 10.0 miles
Clouds Scattered Clouds 3000 ft
Heat Index 80 °F
Dew Point 62 °F
Humidity 57%
Rainfall 0.14 in
Snow Depth Not available.
UV 9 out of 12
Pollen 8.40 out of 12
Air Quality Not available.
Flu Activity Sporadic
METAR KBMI 251856Z 20014KT 10SM SCT030 24/17 A2999 RMK AO2 T02440172 SLP144

More Conditions Fewer Conditions

10-Day Weather Forecast

Almanac

Astronomy

May. 25, 2015 Rise Set
Actual Time
Civil Twilight
Nautical Twilight
Astronomical Twilight
Moon
Length of Visible Light
Length of Day
Tomorrow will be .
, % of the Moon is Illuminated

Today's Extremes

State Highs State Lows

Community

WunderPhotos

Upload Photos

1,824,102 photos uploaded!

WunderBlogs® & News

Nearby

Air Quality

  Air Quality AQ Index Pollutant
Not available.

Snow Depth

Station Depth Elevation

Earthquake Activity

City Distance Mag. Time & Date
Minimum magnitude displayed is 2.5.

Coastal Water Temperatures

Place Temperature

Stations

Nearby Weather Stations

Station Location Temp. Windchill Dew Point Humidity Wind Precip. Elev Updated Type